sensor_id;sensor_type;location;lat;lon;timestamp;P1;durP1;ratioP1;P2;durP2;ratioP2
23163;SDS011;31429;42.674;23.350;2024-02-28T00:00:59;34.57;;;23.53;;
23163;SDS011;31429;42.674;23.350;2024-02-28T00:02:00;41.00;;;28.00;;
23163;SDS011;31429;42.674;23.350;2024-02-28T00:03:02;53.53;;;35.42;;
23163;SDS011;31429;42.674;23.350;2024-02-28T00:04:03;38.13;;;26.13;;
23163;SDS011;31429;42.674;23.350;2024-02-28T00:05:05;27.95;;;22.15;;
23163;SDS011;31429;42.674;23.350;2024-02-28T00:06:06;46.00;;;30.58;;
23163;SDS011;31429;42.674;23.350;2024-02-28T00:07:07;33.57;;;24.70;;
23163;SDS011;31429;42.674;23.350;2024-02-28T00:08:29;57.67;;;37.25;;
23163;SDS011;31429;42.674;23.350;2024-02-28T00:09:30;36.38;;;25.77;;
23163;SDS011;31429;42.674;23.350;2024-02-28T00:10:31;32.77;;;24.20;;
23163;SDS011;31429;42.674;23.350;2024-02-28T00:11:32;33.20;;;23.02;;
23163;SDS011;31429;42.674;23.350;2024-02-28T00:12:33;36.33;;;22.67;;
23163;SDS011;31429;42.674;23.350;2024-02-28T00:13:34;34.72;;;23.35;;
23163;SDS011;31429;42.674;23.350;2024-02-28T00:14:35;38.30;;;25.83;;
23163;SDS011;31429;42.674;23.350;2024-02-28T00:15:36;38.40;;;26.57;;
23163;SDS011;31429;42.674;23.350;2024-02-28T00:16:37;44.43;;;25.37;;
23163;SDS011;31429;42.674;23.350;2024-02-28T00:17:40;45.17;;;28.98;;
23163;SDS011;31429;42.674;23.350;2024-02-28T00:18:42;36.30;;;26.75;;
23163;SDS011;31429;42.674;23.350;2024-02-28T00:19:43;38.03;;;26.47;;
23163;SDS011;31429;42.674;23.350;2024-02-28T00:20:44;35.27;;;24.27;;
23163;SDS011;31429;42.674;23.350;2024-02-28T00:21:44;40.73;;;26.90;;
23163;SDS011;31429;42.674;23.350;2024-02-28T00:22:45;35.57;;;24.77;;
23163;SDS011;31429;42.674;23.350;2024-02-28T00:23:47;36.60;;;25.80;;
23163;SDS011;31429;42.674;23.350;2024-02-28T00:24:48;40.67;;;26.42;;
23163;SDS011;31429;42.674;23.350;2024-02-28T00:25:49;41.20;;;24.30;;
23163;SDS011;31429;42.674;23.350;2024-02-28T00:26:50;39.90;;;28.57;;
23163;SDS011;31429;42.674;23.350;2024-02-28T00:27:50;36.30;;;26.00;;
23163;SDS011;31429;42.674;23.350;2024-02-28T00:28:51;42.10;;;28.03;;
23163;SDS011;31429;42.674;23.350;2024-02-28T00:29:52;39.17;;;27.87;;
23163;SDS011;31429;42.674;23.350;2024-02-28T00:30:53;36.53;;;24.57;;
23163;SDS011;31429;42.674;23.350;2024-02-28T00:31:53;40.73;;;25.73;;
23163;SDS011;31429;42.674;23.350;2024-02-28T00:32:54;36.83;;;24.70;;
23163;SDS011;31429;42.674;23.350;2024-02-28T00:33:55;38.07;;;26.83;;
23163;SDS011;31429;42.674;23.350;2024-02-28T00:34:56;37.13;;;23.57;;
23163;SDS011;31429;42.674;23.350;2024-02-28T00:35:56;37.53;;;27.03;;
23163;SDS011;31429;42.674;23.350;2024-02-28T00:36:57;38.43;;;25.27;;
23163;SDS011;31429;42.674;23.350;2024-02-28T00:37:58;35.60;;;24.50;;
23163;SDS011;31429;42.674;23.350;2024-02-28T00:39:00;40.90;;;24.83;;
23163;SDS011;31429;42.674;23.350;2024-02-28T00:40:01;35.72;;;26.70;;
23163;SDS011;31429;42.674;23.350;2024-02-28T00:41:02;39.00;;;25.03;;
23163;SDS011;31429;42.674;23.350;2024-02-28T00:42:03;38.53;;;26.85;;
23163;SDS011;31429;42.674;23.350;2024-02-28T00:43:03;30.30;;;22.10;;
23163;SDS011;31429;42.674;23.350;2024-02-28T00:44:04;34.00;;;23.53;;
23163;SDS011;31429;42.674;23.350;2024-02-28T00:45:05;38.70;;;24.83;;
23163;SDS011;31429;42.674;23.350;2024-02-28T00:46:08;41.47;;;25.67;;
23163;SDS011;31429;42.674;23.350;2024-02-28T00:47:12;37.70;;;24.77;;
23163;SDS011;31429;42.674;23.350;2024-02-28T00:48:12;33.13;;;22.97;;
23163;SDS011;31429;42.674;23.350;2024-02-28T00:49:14;31.02;;;21.83;;
23163;SDS011;31429;42.674;23.350;2024-02-28T00:50:15;33.50;;;22.67;;
23163;SDS011;31429;42.674;23.350;2024-02-28T00:51:15;36.87;;;23.90;;
23163;SDS011;31429;42.674;23.350;2024-02-28T00:52:16;34.50;;;22.80;;
23163;SDS011;31429;42.674;23.350;2024-02-28T00:53:17;31.47;;;22.90;;
23163;SDS011;31429;42.674;23.350;2024-02-28T00:54:19;31.43;;;22.47;;
23163;SDS011;31429;42.674;23.350;2024-02-28T00:55:22;34.58;;;23.27;;
23163;SDS011;31429;42.674;23.350;2024-02-28T00:56:23;33.87;;;24.40;;
23163;SDS011;31429;42.674;23.350;2024-02-28T00:57:24;33.50;;;22.70;;
23163;SDS011;31429;42.674;23.350;2024-02-28T00:58:25;36.53;;;23.87;;
23163;SDS011;31429;42.674;23.350;2024-02-28T00:59:46;29.08;;;22.05;;
23163;SDS011;31429;42.674;23.350;2024-02-28T01:00:47;34.23;;;22.83;;
23163;SDS011;31429;42.674;23.350;2024-02-28T01:01:48;31.42;;;22.30;;
23163;SDS011;31429;42.674;23.350;2024-02-28T01:02:49;34.93;;;22.70;;
23163;SDS011;31429;42.674;23.350;2024-02-28T01:03:50;31.40;;;21.73;;
23163;SDS011;31429;42.674;23.350;2024-02-28T01:04:50;32.57;;;22.57;;
23163;SDS011;31429;42.674;23.350;2024-02-28T01:05:51;35.77;;;22.17;;
23163;SDS011;31429;42.674;23.350;2024-02-28T01:06:52;31.47;;;21.90;;
23163;SDS011;31429;42.674;23.350;2024-02-28T01:07:52;34.83;;;23.23;;
23163;SDS011;31429;42.674;23.350;2024-02-28T01:08:53;42.73;;;23.43;;
23163;SDS011;31429;42.674;23.350;2024-02-28T01:09:55;31.93;;;23.90;;
23163;SDS011;31429;42.674;23.350;2024-02-28T01:10:56;36.17;;;22.13;;
23163;SDS011;31429;42.674;23.350;2024-02-28T01:11:57;34.92;;;23.00;;
23163;SDS011;31429;42.674;23.350;2024-02-28T01:12:58;36.87;;;23.00;;
23163;SDS011;31429;42.674;23.350;2024-02-28T01:13:59;32.37;;;22.33;;
23163;SDS011;31429;42.674;23.350;2024-02-28T01:15:00;38.67;;;24.67;;
23163;SDS011;31429;42.674;23.350;2024-02-28T01:16:00;33.93;;;23.73;;
23163;SDS011;31429;42.674;23.350;2024-02-28T01:17:01;38.23;;;23.43;;
23163;SDS011;31429;42.674;23.350;2024-02-28T01:18:02;38.43;;;23.90;;
23163;SDS011;31429;42.674;23.350;2024-02-28T01:19:03;34.97;;;23.10;;
23163;SDS011;31429;42.674;23.350;2024-02-28T01:20:04;36.43;;;25.50;;
23163;SDS011;31429;42.674;23.350;2024-02-28T01:21:05;35.45;;;23.95;;
23163;SDS011;31429;42.674;23.350;2024-02-28T01:22:06;33.87;;;24.93;;
23163;SDS011;31429;42.674;23.350;2024-02-28T01:23:08;31.70;;;23.80;;
23163;SDS011;31429;42.674;23.350;2024-02-28T01:24:09;33.28;;;24.13;;
23163;SDS011;31429;42.674;23.350;2024-02-28T01:25:12;37.27;;;23.67;;
23163;SDS011;31429;42.674;23.350;2024-02-28T01:26:12;35.65;;;24.85;;
23163;SDS011;31429;42.674;23.350;2024-02-28T01:27:13;33.20;;;24.27;;
23163;SDS011;31429;42.674;23.350;2024-02-28T01:28:14;35.23;;;24.00;;
23163;SDS011;31429;42.674;23.350;2024-02-28T01:29:15;34.13;;;24.60;;
23163;SDS011;31429;42.674;23.350;2024-02-28T01:30:15;39.17;;;25.80;;
23163;SDS011;31429;42.674;23.350;2024-02-28T01:31:16;37.80;;;26.07;;
23163;SDS011;31429;42.674;23.350;2024-02-28T01:32:17;39.20;;;25.27;;
23163;SDS011;31429;42.674;23.350;2024-02-28T01:33:18;35.30;;;26.00;;
23163;SDS011;31429;42.674;23.350;2024-02-28T01:34:19;37.37;;;24.90;;
23163;SDS011;31429;42.674;23.350;2024-02-28T01:35:19;39.53;;;26.67;;
23163;SDS011;31429;42.674;23.350;2024-02-28T01:36:20;37.83;;;26.13;;
23163;SDS011;31429;42.674;23.350;2024-02-28T01:37:21;40.43;;;25.77;;
23163;SDS011;31429;42.674;23.350;2024-02-28T01:38:21;35.87;;;24.50;;
23163;SDS011;31429;42.674;23.350;2024-02-28T01:39:22;35.77;;;25.20;;
23163;SDS011;31429;42.674;23.350;2024-02-28T01:40:25;43.05;;;27.00;;
23163;SDS011;31429;42.674;23.350;2024-02-28T01:41:25;39.72;;;27.42;;
23163;SDS011;31429;42.674;23.350;2024-02-28T01:42:26;34.30;;;25.83;;
23163;SDS011;31429;42.674;23.350;2024-02-28T01:43:27;41.47;;;27.43;;
23163;SDS011;31429;42.674;23.350;2024-02-28T01:44:28;35.87;;;25.43;;
23163;SDS011;31429;42.674;23.350;2024-02-28T01:45:28;41.70;;;24.77;;
23163;SDS011;31429;42.674;23.350;2024-02-28T01:46:29;38.17;;;26.30;;
23163;SDS011;31429;42.674;23.350;2024-02-28T01:47:50;39.00;;;26.70;;
23163;SDS011;31429;42.674;23.350;2024-02-28T01:48:51;40.80;;;26.87;;
23163;SDS011;31429;42.674;23.350;2024-02-28T01:49:53;40.60;;;26.88;;
23163;SDS011;31429;42.674;23.350;2024-02-28T01:50:54;37.70;;;25.02;;
23163;SDS011;31429;42.674;23.350;2024-02-28T01:51:55;41.03;;;25.93;;
23163;SDS011;31429;42.674;23.350;2024-02-28T01:52:57;40.80;;;26.20;;
23163;SDS011;31429;42.674;23.350;2024-02-28T01:53:58;40.38;;;27.08;;
23163;SDS011;31429;42.674;23.350;2024-02-28T01:54:59;38.57;;;26.23;;
23163;SDS011;31429;42.674;23.350;2024-02-28T01:56:02;39.03;;;26.37;;
23163;SDS011;31429;42.674;23.350;2024-02-28T01:57:03;41.55;;;27.17;;
23163;SDS011;31429;42.674;23.350;2024-02-28T01:58:04;46.05;;;29.00;;
23163;SDS011;31429;42.674;23.350;2024-02-28T01:59:06;42.00;;;27.75;;
23163;SDS011;31429;42.674;23.350;2024-02-28T02:00:09;46.72;;;28.85;;
23163;SDS011;31429;42.674;23.350;2024-02-28T02:01:11;41.47;;;28.52;;
23163;SDS011;31429;42.674;23.350;2024-02-28T02:02:13;37.63;;;26.58;;
23163;SDS011;31429;42.674;23.350;2024-02-28T02:03:14;41.57;;;27.70;;
23163;SDS011;31429;42.674;23.350;2024-02-28T02:04:15;43.83;;;28.43;;
23163;SDS011;31429;42.674;23.350;2024-02-28T02:05:16;36.10;;;27.20;;
23163;SDS011;31429;42.674;23.350;2024-02-28T02:06:20;43.20;;;27.55;;
23163;SDS011;31429;42.674;23.350;2024-02-28T02:07:22;40.53;;;28.58;;
23163;SDS011;31429;42.674;23.350;2024-02-28T02:08:23;42.53;;;27.87;;
23163;SDS011;31429;42.674;23.350;2024-02-28T02:09:24;39.60;;;28.25;;
23163;SDS011;31429;42.674;23.350;2024-02-28T02:10:26;37.80;;;27.88;;
23163;SDS011;31429;42.674;23.350;2024-02-28T02:11:29;38.45;;;26.50;;
23163;SDS011;31429;42.674;23.350;2024-02-28T02:12:29;41.63;;;28.30;;
23163;SDS011;31429;42.674;23.350;2024-02-28T02:13:33;42.70;;;28.08;;
23163;SDS011;31429;42.674;23.350;2024-02-28T02:14:35;38.85;;;26.73;;
23163;SDS011;31429;42.674;23.350;2024-02-28T02:15:36;39.90;;;27.27;;
23163;SDS011;31429;42.674;23.350;2024-02-28T02:16:36;42.10;;;28.73;;
23163;SDS011;31429;42.674;23.350;2024-02-28T02:17:37;44.10;;;28.67;;
23163;SDS011;31429;42.674;23.350;2024-02-28T02:18:38;41.40;;;28.33;;
23163;SDS011;31429;42.674;23.350;2024-02-28T02:19:39;42.97;;;30.37;;
23163;SDS011;31429;42.674;23.350;2024-02-28T02:20:41;49.03;;;28.92;;
23163;SDS011;31429;42.674;23.350;2024-02-28T02:21:49;41.55;;;28.10;;
23163;SDS011;31429;42.674;23.350;2024-02-28T02:22:55;43.47;;;26.50;;
23163;SDS011;31429;42.674;23.350;2024-02-28T02:23:56;40.08;;;27.30;;
23163;SDS011;31429;42.674;23.350;2024-02-28T02:24:57;38.87;;;27.63;;
23163;SDS011;31429;42.674;23.350;2024-02-28T02:25:57;40.00;;;27.97;;
23163;SDS011;31429;42.674;23.350;2024-02-28T02:26:58;40.53;;;26.30;;
23163;SDS011;31429;42.674;23.350;2024-02-28T02:28:00;39.58;;;26.92;;
23163;SDS011;31429;42.674;23.350;2024-02-28T02:29:01;34.80;;;26.35;;
23163;SDS011;31429;42.674;23.350;2024-02-28T02:30:02;42.07;;;25.30;;
23163;SDS011;31429;42.674;23.350;2024-02-28T02:31:03;38.70;;;25.58;;
23163;SDS011;31429;42.674;23.350;2024-02-28T02:32:04;40.07;;;27.13;;
23163;SDS011;31429;42.674;23.350;2024-02-28T02:33:05;40.83;;;26.15;;
23163;SDS011;31429;42.674;23.350;2024-02-28T02:34:06;42.30;;;28.83;;
23163;SDS011;31429;42.674;23.350;2024-02-28T02:35:07;40.30;;;28.03;;
23163;SDS011;31429;42.674;23.350;2024-02-28T02:36:08;46.33;;;29.20;;
23163;SDS011;31429;42.674;23.350;2024-02-28T02:37:09;38.73;;;26.80;;
23163;SDS011;31429;42.674;23.350;2024-02-28T02:38:11;44.83;;;27.13;;
23163;SDS011;31429;42.674;23.350;2024-02-28T02:39:12;41.05;;;26.77;;
23163;SDS011;31429;42.674;23.350;2024-02-28T02:40:13;42.77;;;28.00;;
23163;SDS011;31429;42.674;23.350;2024-02-28T02:41:14;32.40;;;24.95;;
23163;SDS011;31429;42.674;23.350;2024-02-28T02:42:14;39.87;;;25.53;;
23163;SDS011;31429;42.674;23.350;2024-02-28T02:43:15;37.13;;;25.43;;
23163;SDS011;31429;42.674;23.350;2024-02-28T02:44:16;39.10;;;26.10;;
23163;SDS011;31429;42.674;23.350;2024-02-28T02:45:17;40.33;;;27.37;;
23163;SDS011;31429;42.674;23.350;2024-02-28T02:46:18;42.80;;;29.10;;
23163;SDS011;31429;42.674;23.350;2024-02-28T02:47:19;41.00;;;28.17;;
23163;SDS011;31429;42.674;23.350;2024-02-28T02:48:20;40.93;;;26.73;;
23163;SDS011;31429;42.674;23.350;2024-02-28T02:49:21;36.67;;;27.03;;
23163;SDS011;31429;42.674;23.350;2024-02-28T02:50:21;38.80;;;25.23;;
23163;SDS011;31429;42.674;23.350;2024-02-28T02:51:22;37.47;;;24.93;;
23163;SDS011;31429;42.674;23.350;2024-02-28T02:52:23;33.80;;;24.83;;
23163;SDS011;31429;42.674;23.350;2024-02-28T02:53:25;39.70;;;25.17;;
23163;SDS011;31429;42.674;23.350;2024-02-28T02:54:26;36.17;;;24.63;;
23163;SDS011;31429;42.674;23.350;2024-02-28T02:55:27;37.87;;;26.13;;
23163;SDS011;31429;42.674;23.350;2024-02-28T02:56:27;35.53;;;25.10;;
23163;SDS011;31429;42.674;23.350;2024-02-28T02:57:28;38.07;;;24.97;;
23163;SDS011;31429;42.674;23.350;2024-02-28T02:58:31;39.05;;;26.35;;
23163;SDS011;31429;42.674;23.350;2024-02-28T02:59:31;39.17;;;26.83;;
23163;SDS011;31429;42.674;23.350;2024-02-28T03:00:32;41.60;;;27.20;;
23163;SDS011;31429;42.674;23.350;2024-02-28T03:01:33;38.43;;;26.87;;
23163;SDS011;31429;42.674;23.350;2024-02-28T03:02:33;39.30;;;26.83;;
23163;SDS011;31429;42.674;23.350;2024-02-28T03:03:34;38.23;;;26.53;;
23163;SDS011;31429;42.674;23.350;2024-02-28T03:04:37;37.53;;;26.23;;
23163;SDS011;31429;42.674;23.350;2024-02-28T03:05:38;39.53;;;27.70;;
23163;SDS011;31429;42.674;23.350;2024-02-28T03:06:39;43.77;;;30.23;;
23163;SDS011;31429;42.674;23.350;2024-02-28T03:07:39;44.93;;;29.23;;
23163;SDS011;31429;42.674;23.350;2024-02-28T03:08:41;45.83;;;27.97;;
23163;SDS011;31429;42.674;23.350;2024-02-28T03:09:42;41.45;;;27.15;;
23163;SDS011;31429;42.674;23.350;2024-02-28T03:10:43;42.97;;;28.07;;
23163;SDS011;31429;42.674;23.350;2024-02-28T03:11:44;38.17;;;27.33;;
23163;SDS011;31429;42.674;23.350;2024-02-28T03:12:45;35.30;;;26.47;;
23163;SDS011;31429;42.674;23.350;2024-02-28T03:13:45;37.10;;;25.67;;
23163;SDS011;31429;42.674;23.350;2024-02-28T03:14:46;36.60;;;25.37;;
23163;SDS011;31429;42.674;23.350;2024-02-28T03:15:48;41.15;;;25.65;;
23163;SDS011;31429;42.674;23.350;2024-02-28T03:16:48;39.23;;;26.83;;
23163;SDS011;31429;42.674;23.350;2024-02-28T03:17:49;43.93;;;28.63;;
23163;SDS011;31429;42.674;23.350;2024-02-28T03:18:50;41.60;;;29.00;;
23163;SDS011;31429;42.674;23.350;2024-02-28T03:19:51;44.90;;;30.37;;
23163;SDS011;31429;42.674;23.350;2024-02-28T03:20:51;48.33;;;28.93;;
23163;SDS011;31429;42.674;23.350;2024-02-28T03:21:53;45.55;;;30.73;;
23163;SDS011;31429;42.674;23.350;2024-02-28T03:22:54;42.73;;;28.70;;
23163;SDS011;31429;42.674;23.350;2024-02-28T03:23:56;42.27;;;29.70;;
23163;SDS011;31429;42.674;23.350;2024-02-28T03:24:57;46.88;;;32.25;;
23163;SDS011;31429;42.674;23.350;2024-02-28T03:25:58;44.73;;;30.70;;
23163;SDS011;31429;42.674;23.350;2024-02-28T03:26:58;45.97;;;29.67;;
23163;SDS011;31429;42.674;23.350;2024-02-28T03:27:59;42.87;;;28.30;;
23163;SDS011;31429;42.674;23.350;2024-02-28T03:29:01;46.25;;;31.40;;
23163;SDS011;31429;42.674;23.350;2024-02-28T03:30:02;49.00;;;30.43;;
23163;SDS011;31429;42.674;23.350;2024-02-28T03:31:03;45.05;;;30.30;;
23163;SDS011;31429;42.674;23.350;2024-02-28T03:32:04;46.27;;;30.63;;
23163;SDS011;31429;42.674;23.350;2024-02-28T03:33:05;44.97;;;30.92;;
23163;SDS011;31429;42.674;23.350;2024-02-28T03:34:06;39.83;;;29.57;;
23163;SDS011;31429;42.674;23.350;2024-02-28T03:35:07;48.93;;;29.57;;
23163;SDS011;31429;42.674;23.350;2024-02-28T03:36:08;45.40;;;29.60;;
23163;SDS011;31429;42.674;23.350;2024-02-28T03:37:09;47.20;;;30.87;;
23163;SDS011;31429;42.674;23.350;2024-02-28T03:38:10;44.80;;;30.63;;
23163;SDS011;31429;42.674;23.350;2024-02-28T03:39:32;48.47;;;30.70;;
23163;SDS011;31429;42.674;23.350;2024-02-28T03:40:33;40.30;;;29.33;;
23163;SDS011;31429;42.674;23.350;2024-02-28T03:41:34;45.23;;;31.07;;
23163;SDS011;31429;42.674;23.350;2024-02-28T03:42:35;45.77;;;30.57;;
23163;SDS011;31429;42.674;23.350;2024-02-28T03:43:36;46.63;;;30.07;;
23163;SDS011;31429;42.674;23.350;2024-02-28T03:44:36;43.97;;;30.07;;
23163;SDS011;31429;42.674;23.350;2024-02-28T03:45:37;43.63;;;29.47;;
23163;SDS011;31429;42.674;23.350;2024-02-28T03:46:40;47.38;;;29.20;;
23163;SDS011;31429;42.674;23.350;2024-02-28T03:47:40;45.40;;;29.93;;
23163;SDS011;31429;42.674;23.350;2024-02-28T03:48:41;41.17;;;30.30;;
23163;SDS011;31429;42.674;23.350;2024-02-28T03:49:42;42.57;;;30.80;;
23163;SDS011;31429;42.674;23.350;2024-02-28T03:50:43;47.33;;;30.37;;
23163;SDS011;31429;42.674;23.350;2024-02-28T03:51:43;40.30;;;30.30;;
23163;SDS011;31429;42.674;23.350;2024-02-28T03:52:44;45.90;;;31.60;;
23163;SDS011;31429;42.674;23.350;2024-02-28T03:53:45;47.70;;;31.57;;
23163;SDS011;31429;42.674;23.350;2024-02-28T03:54:47;43.03;;;29.83;;
23163;SDS011;31429;42.674;23.350;2024-02-28T03:55:48;45.88;;;30.92;;
23163;SDS011;31429;42.674;23.350;2024-02-28T03:56:48;45.67;;;31.10;;
23163;SDS011;31429;42.674;23.350;2024-02-28T03:57:49;42.87;;;32.30;;
23163;SDS011;31429;42.674;23.350;2024-02-28T03:58:52;44.22;;;30.70;;
23163;SDS011;31429;42.674;23.350;2024-02-28T03:59:53;69.47;;;45.83;;
23163;SDS011;31429;42.674;23.350;2024-02-28T04:00:53;51.47;;;33.50;;
23163;SDS011;31429;42.674;23.350;2024-02-28T04:01:54;83.30;;;54.23;;
23163;SDS011;31429;42.674;23.350;2024-02-28T04:02:55;90.37;;;57.40;;
23163;SDS011;31429;42.674;23.350;2024-02-28T04:03:56;69.57;;;41.67;;
23163;SDS011;31429;42.674;23.350;2024-02-28T04:04:56;51.20;;;33.40;;
23163;SDS011;31429;42.674;23.350;2024-02-28T04:05:57;80.80;;;52.70;;
23163;SDS011;31429;42.674;23.350;2024-02-28T04:06:58;60.80;;;41.03;;
23163;SDS011;31429;42.674;23.350;2024-02-28T04:07:59;48.50;;;32.83;;
23163;SDS011;31429;42.674;23.350;2024-02-28T04:09:00;65.83;;;43.10;;
23163;SDS011;31429;42.674;23.350;2024-02-28T04:10:03;78.53;;;52.42;;
23163;SDS011;31429;42.674;23.350;2024-02-28T04:11:05;83.05;;;56.75;;
23163;SDS011;31429;42.674;23.350;2024-02-28T04:12:06;75.93;;;48.43;;
23163;SDS011;31429;42.674;23.350;2024-02-28T04:13:07;52.28;;;34.05;;
23163;SDS011;31429;42.674;23.350;2024-02-28T04:14:08;56.67;;;37.77;;
23163;SDS011;31429;42.674;23.350;2024-02-28T04:15:10;60.27;;;37.07;;
23163;SDS011;31429;42.674;23.350;2024-02-28T04:16:11;75.55;;;48.50;;
23163;SDS011;31429;42.674;23.350;2024-02-28T04:17:12;125.78;;;88.32;;
23163;SDS011;31429;42.674;23.350;2024-02-28T04:18:13;143.57;;;101.50;;
23163;SDS011;31429;42.674;23.350;2024-02-28T04:19:14;209.30;;;147.93;;
23163;SDS011;31429;42.674;23.350;2024-02-28T04:20:14;338.33;;;243.17;;
23163;SDS011;31429;42.674;23.350;2024-02-28T04:21:15;320.53;;;227.43;;
23163;SDS011;31429;42.674;23.350;2024-02-28T04:22:16;315.00;;;224.90;;
23163;SDS011;31429;42.674;23.350;2024-02-28T04:23:17;321.07;;;228.70;;
23163;SDS011;31429;42.674;23.350;2024-02-28T04:24:18;166.75;;;112.82;;
23163;SDS011;31429;42.674;23.350;2024-02-28T04:25:20;173.30;;;120.17;;
23163;SDS011;31429;42.674;23.350;2024-02-28T04:26:21;155.05;;;104.55;;
23163;SDS011;31429;42.674;23.350;2024-02-28T04:27:21;65.00;;;42.03;;
23163;SDS011;31429;42.674;23.350;2024-02-28T04:28:22;87.03;;;57.77;;
23163;SDS011;31429;42.674;23.350;2024-02-28T04:29:23;73.97;;;50.30;;
23163;SDS011;31429;42.674;23.350;2024-02-28T04:30:24;91.60;;;59.77;;
23163;SDS011;31429;42.674;23.350;2024-02-28T04:31:24;76.33;;;53.20;;
23163;SDS011;31429;42.674;23.350;2024-02-28T04:32:25;82.13;;;54.93;;
23163;SDS011;31429;42.674;23.350;2024-02-28T04:33:26;68.10;;;42.63;;
23163;SDS011;31429;42.674;23.350;2024-02-28T04:34:27;75.57;;;46.70;;
23163;SDS011;31429;42.674;23.350;2024-02-28T04:35:27;73.10;;;47.90;;
23163;SDS011;31429;42.674;23.350;2024-02-28T04:36:28;73.97;;;47.93;;
23163;SDS011;31429;42.674;23.350;2024-02-28T04:37:29;53.40;;;36.40;;
23163;SDS011;31429;42.674;23.350;2024-02-28T04:38:29;50.20;;;34.57;;
23163;SDS011;31429;42.674;23.350;2024-02-28T04:39:30;49.67;;;33.93;;
23163;SDS011;31429;42.674;23.350;2024-02-28T04:40:32;49.20;;;32.87;;
23163;SDS011;31429;42.674;23.350;2024-02-28T04:41:33;49.85;;;33.03;;
23163;SDS011;31429;42.674;23.350;2024-02-28T04:42:34;57.30;;;36.57;;
23163;SDS011;31429;42.674;23.350;2024-02-28T04:43:35;54.67;;;34.10;;
23163;SDS011;31429;42.674;23.350;2024-02-28T04:44:35;51.03;;;34.57;;
23163;SDS011;31429;42.674;23.350;2024-02-28T04:45:36;55.67;;;33.77;;
23163;SDS011;31429;42.674;23.350;2024-02-28T04:46:57;64.20;;;39.83;;
23163;SDS011;31429;42.674;23.350;2024-02-28T04:47:57;64.97;;;43.77;;
23163;SDS011;31429;42.674;23.350;2024-02-28T04:48:58;80.23;;;52.17;;
23163;SDS011;31429;42.674;23.350;2024-02-28T04:49:59;77.83;;;50.03;;
23163;SDS011;31429;42.674;23.350;2024-02-28T04:51:00;65.63;;;42.63;;
23163;SDS011;31429;42.674;23.350;2024-02-28T04:52:01;77.13;;;48.05;;
23163;SDS011;31429;42.674;23.350;2024-02-28T04:53:02;78.73;;;48.57;;
23163;SDS011;31429;42.674;23.350;2024-02-28T04:54:03;75.13;;;51.25;;
23163;SDS011;31429;42.674;23.350;2024-02-28T04:55:04;68.97;;;47.88;;
23163;SDS011;31429;42.674;23.350;2024-02-28T04:56:07;70.85;;;49.30;;
23163;SDS011;31429;42.674;23.350;2024-02-28T04:57:08;61.95;;;43.40;;
23163;SDS011;31429;42.674;23.350;2024-02-28T04:58:09;63.00;;;42.85;;
23163;SDS011;31429;42.674;23.350;2024-02-28T04:59:11;70.27;;;46.67;;
23163;SDS011;31429;42.674;23.350;2024-02-28T05:00:13;62.58;;;41.90;;
23163;SDS011;31429;42.674;23.350;2024-02-28T05:01:14;67.70;;;45.08;;
23163;SDS011;31429;42.674;23.350;2024-02-28T05:02:14;64.50;;;43.97;;
23163;SDS011;31429;42.674;23.350;2024-02-28T05:03:17;68.40;;;47.10;;
23163;SDS011;31429;42.674;23.350;2024-02-28T05:04:18;70.20;;;45.90;;
23163;SDS011;31429;42.674;23.350;2024-02-28T05:05:19;64.43;;;43.22;;
23163;SDS011;31429;42.674;23.350;2024-02-28T05:06:20;60.63;;;40.63;;
23163;SDS011;31429;42.674;23.350;2024-02-28T05:07:21;57.63;;;39.57;;
23163;SDS011;31429;42.674;23.350;2024-02-28T05:08:22;63.40;;;39.25;;
23163;SDS011;31429;42.674;23.350;2024-02-28T05:09:23;47.87;;;34.30;;
23163;SDS011;31429;42.674;23.350;2024-02-28T05:10:24;49.77;;;35.10;;
23163;SDS011;31429;42.674;23.350;2024-02-28T05:11:26;52.30;;;34.90;;
23163;SDS011;31429;42.674;23.350;2024-02-28T05:12:26;52.67;;;34.88;;
23163;SDS011;31429;42.674;23.350;2024-02-28T05:13:27;54.57;;;35.10;;
23163;SDS011;31429;42.674;23.350;2024-02-28T05:14:28;54.53;;;36.00;;
23163;SDS011;31429;42.674;23.350;2024-02-28T05:15:29;51.10;;;35.27;;
23163;SDS011;31429;42.674;23.350;2024-02-28T05:16:29;61.20;;;38.20;;
23163;SDS011;31429;42.674;23.350;2024-02-28T05:17:30;68.30;;;40.87;;
23163;SDS011;31429;42.674;23.350;2024-02-28T05:18:31;66.43;;;39.33;;
23163;SDS011;31429;42.674;23.350;2024-02-28T05:19:32;59.10;;;40.67;;
23163;SDS011;31429;42.674;23.350;2024-02-28T05:20:33;52.03;;;36.50;;
23163;SDS011;31429;42.674;23.350;2024-02-28T05:21:39;58.23;;;36.93;;
23163;SDS011;31429;42.674;23.350;2024-02-28T05:22:40;58.33;;;37.45;;
23163;SDS011;31429;42.674;23.350;2024-02-28T05:23:43;55.85;;;37.97;;
23163;SDS011;31429;42.674;23.350;2024-02-28T05:24:45;55.77;;;37.33;;
23163;SDS011;31429;42.674;23.350;2024-02-28T05:25:46;59.70;;;39.78;;
23163;SDS011;31429;42.674;23.350;2024-02-28T05:26:48;58.67;;;38.83;;
23163;SDS011;31429;42.674;23.350;2024-02-28T05:27:49;58.50;;;36.47;;
23163;SDS011;31429;42.674;23.350;2024-02-28T05:28:50;55.20;;;38.03;;
23163;SDS011;31429;42.674;23.350;2024-02-28T05:29:51;66.43;;;38.93;;
23163;SDS011;31429;42.674;23.350;2024-02-28T05:30:51;61.43;;;38.37;;
23163;SDS011;31429;42.674;23.350;2024-02-28T05:31:52;56.07;;;37.87;;
23163;SDS011;31429;42.674;23.350;2024-02-28T05:32:53;56.53;;;37.00;;
23163;SDS011;31429;42.674;23.350;2024-02-28T05:33:55;60.15;;;39.97;;
23163;SDS011;31429;42.674;23.350;2024-02-28T05:34:56;64.97;;;40.42;;
23163;SDS011;31429;42.674;23.350;2024-02-28T05:35:57;61.67;;;38.47;;
23163;SDS011;31429;42.674;23.350;2024-02-28T05:36:59;64.47;;;37.25;;
23163;SDS011;31429;42.674;23.350;2024-02-28T05:38:01;57.45;;;36.97;;
23163;SDS011;31429;42.674;23.350;2024-02-28T05:39:03;57.72;;;37.67;;
23163;SDS011;31429;42.674;23.350;2024-02-28T05:40:06;60.63;;;40.05;;
23163;SDS011;31429;42.674;23.350;2024-02-28T05:41:28;63.42;;;41.15;;
23163;SDS011;31429;42.674;23.350;2024-02-28T05:42:30;67.67;;;41.77;;
23163;SDS011;31429;42.674;23.350;2024-02-28T05:43:31;60.35;;;39.97;;
23163;SDS011;31429;42.674;23.350;2024-02-28T05:44:32;63.93;;;39.33;;
23163;SDS011;31429;42.674;23.350;2024-02-28T05:45:34;61.90;;;39.92;;
23163;SDS011;31429;42.674;23.350;2024-02-28T05:46:35;62.63;;;39.13;;
23163;SDS011;31429;42.674;23.350;2024-02-28T05:47:37;57.67;;;36.67;;
23163;SDS011;31429;42.674;23.350;2024-02-28T05:48:40;58.23;;;36.67;;
23163;SDS011;31429;42.674;23.350;2024-02-28T05:49:41;64.95;;;38.75;;
23163;SDS011;31429;42.674;23.350;2024-02-28T05:50:41;59.33;;;41.03;;
23163;SDS011;31429;42.674;23.350;2024-02-28T05:51:42;61.87;;;39.90;;
23163;SDS011;31429;42.674;23.350;2024-02-28T05:52:43;60.37;;;39.40;;
23163;SDS011;31429;42.674;23.350;2024-02-28T05:53:44;55.70;;;35.47;;
23163;SDS011;31429;42.674;23.350;2024-02-28T05:54:44;59.90;;;37.43;;